sensor_id;sensor_type;location;lat;lon;timestamp;temperature;humidity
22968;DHT22;11650;48.106;-1.696;2023-05-07T00:02:06;15.70;99.90
22968;DHT22;11650;48.106;-1.696;2023-05-07T00:04:32;15.70;99.90
22968;DHT22;11650;48.106;-1.696;2023-05-07T00:07:02;15.70;99.90
22968;DHT22;11650;48.106;-1.696;2023-05-07T00:09:28;15.60;99.90
22968;DHT22;11650;48.106;-1.696;2023-05-07T00:11:53;15.60;99.90
22968;DHT22;11650;48.106;-1.696;2023-05-07T00:14:19;15.60;99.90
22968;DHT22;11650;48.106;-1.696;2023-05-07T00:16:46;15.60;99.90
22968;DHT22;11650;48.106;-1.696;2023-05-07T00:19:12;15.60;99.90
22968;DHT22;11650;48.106;-1.696;2023-05-07T00:21:37;15.50;99.90
22968;DHT22;11650;48.106;-1.696;2023-05-07T00:24:03;15.50;99.90
22968;DHT22;11650;48.106;-1.696;2023-05-07T00:26:29;15.50;99.90
22968;DHT22;11650;48.106;-1.696;2023-05-07T00:28:55;15.40;99.90
22968;DHT22;11650;48.106;-1.696;2023-05-07T00:31:20;15.40;99.90
22968;DHT22;11650;48.106;-1.696;2023-05-07T00:33:46;15.40;99.90
22968;DHT22;11650;48.106;-1.696;2023-05-07T00:36:12;15.40;99.90
22968;DHT22;11650;48.106;-1.696;2023-05-07T00:38:37;15.40;99.90
22968;DHT22;11650;48.106;-1.696;2023-05-07T00:41:03;15.40;99.90
22968;DHT22;11650;48.106;-1.696;2023-05-07T00:43:29;15.40;99.90
22968;DHT22;11650;48.106;-1.696;2023-05-07T00:45:55;15.40;99.90
22968;DHT22;11650;48.106;-1.696;2023-05-07T00:48:21;15.40;99.90
22968;DHT22;11650;48.106;-1.696;2023-05-07T00:50:47;15.30;99.90
22968;DHT22;11650;48.106;-1.696;2023-05-07T00:53:13;15.30;99.90
22968;DHT22;11650;48.106;-1.696;2023-05-07T00:55:39;15.20;99.90
22968;DHT22;11650;48.106;-1.696;2023-05-07T00:58:06;15.20;99.90
22968;DHT22;11650;48.106;-1.696;2023-05-07T01:00:32;15.20;99.90
22968;DHT22;11650;48.106;-1.696;2023-05-07T01:02:58;15.20;99.90
22968;DHT22;11650;48.106;-1.696;2023-05-07T01:05:24;15.10;99.90
22968;DHT22;11650;48.106;-1.696;2023-05-07T01:07:51;15.10;99.90
22968;DHT22;11650;48.106;-1.696;2023-05-07T01:10:17;15.10;99.90
22968;DHT22;11650;48.106;-1.696;2023-05-07T01:12:44;15.00;99.90
22968;DHT22;11650;48.106;-1.696;2023-05-07T01:15:11;15.10;99.90
22968;DHT22;11650;48.106;-1.696;2023-05-07T01:17:39;15.00;99.90
22968;DHT22;11650;48.106;-1.696;2023-05-07T01:20:06;15.00;99.90
22968;DHT22;11650;48.106;-1.696;2023-05-07T01:22:34;15.10;99.90
22968;DHT22;11650;48.106;-1.696;2023-05-07T01:25:02;15.10;99.90
22968;DHT22;11650;48.106;-1.696;2023-05-07T01:27:28;15.00;99.90
22968;DHT22;11650;48.106;-1.696;2023-05-07T01:29:56;15.00;99.90
22968;DHT22;11650;48.106;-1.696;2023-05-07T01:32:37;14.90;99.90
22968;DHT22;11650;48.106;-1.696;2023-05-07T01:35:07;14.90;99.90
22968;DHT22;11650;48.106;-1.696;2023-05-07T01:37:34;14.90;99.90
22968;DHT22;11650;48.106;-1.696;2023-05-07T01:40:01;14.80;99.90
22968;DHT22;11650;48.106;-1.696;2023-05-07T01:42:27;14.80;99.90
22968;DHT22;11650;48.106;-1.696;2023-05-07T01:44:53;14.70;99.90
22968;DHT22;11650;48.106;-1.696;2023-05-07T01:47:20;14.70;99.90
22968;DHT22;11650;48.106;-1.696;2023-05-07T01:49:46;14.60;99.90
22968;DHT22;11650;48.106;-1.696;2023-05-07T01:52:13;14.60;99.90
22968;DHT22;11650;48.106;-1.696;2023-05-07T01:54:38;14.60;99.90
22968;DHT22;11650;48.106;-1.696;2023-05-07T01:57:04;14.60;99.90
22968;DHT22;11650;48.106;-1.696;2023-05-07T01:59:30;14.60;99.90
22968;DHT22;11650;48.106;-1.696;2023-05-07T02:01:55;14.60;99.90
22968;DHT22;11650;48.106;-1.696;2023-05-07T02:04:21;14.50;99.90
22968;DHT22;11650;48.106;-1.696;2023-05-07T02:06:47;14.50;99.90
22968;DHT22;11650;48.106;-1.696;2023-05-07T02:09:13;14.50;99.90
22968;DHT22;11650;48.106;-1.696;2023-05-07T02:11:40;14.50;99.90
22968;DHT22;11650;48.106;-1.696;2023-05-07T02:14:05;14.50;99.90
22968;DHT22;11650;48.106;-1.696;2023-05-07T02:16:31;14.50;99.90
22968;DHT22;11650;48.106;-1.696;2023-05-07T02:18:57;14.40;99.90
22968;DHT22;11650;48.106;-1.696;2023-05-07T02:21:24;14.50;99.90
22968;DHT22;11650;48.106;-1.696;2023-05-07T02:23:50;14.40;99.90
22968;DHT22;11650;48.106;-1.696;2023-05-07T02:26:16;14.40;99.90
22968;DHT22;11650;48.106;-1.696;2023-05-07T02:28:41;14.40;99.90
22968;DHT22;11650;48.106;-1.696;2023-05-07T02:31:07;14.40;99.90
22968;DHT22;11650;48.106;-1.696;2023-05-07T02:33:33;14.40;99.90
22968;DHT22;11650;48.106;-1.696;2023-05-07T02:36:10;14.40;99.90
22968;DHT22;11650;48.106;-1.696;2023-05-07T02:38:36;14.50;99.90
22968;DHT22;11650;48.106;-1.696;2023-05-07T02:41:01;14.50;99.90
22968;DHT22;11650;48.106;-1.696;2023-05-07T02:43:27;14.50;99.90
22968;DHT22;11650;48.106;-1.696;2023-05-07T02:46:06;14.50;99.90
22968;DHT22;11650;48.106;-1.696;2023-05-07T02:48:32;14.50;99.90
22968;DHT22;11650;48.106;-1.696;2023-05-07T02:50:59;14.60;99.90
22968;DHT22;11650;48.106;-1.696;2023-05-07T02:53:25;14.60;99.90
22968;DHT22;11650;48.106;-1.696;2023-05-07T02:55:56;14.60;99.90
22968;DHT22;11650;48.106;-1.696;2023-05-07T02:58:22;14.60;99.90
22968;DHT22;11650;48.106;-1.696;2023-05-07T03:00:48;14.50;99.90
22968;DHT22;11650;48.106;-1.696;2023-05-07T03:03:14;14.50;99.90
22968;DHT22;11650;48.106;-1.696;2023-05-07T03:05:39;14.50;99.90
22968;DHT22;11650;48.106;-1.696;2023-05-07T03:08:06;14.60;99.90
22968;DHT22;11650;48.106;-1.696;2023-05-07T03:10:31;14.60;99.90
22968;DHT22;11650;48.106;-1.696;2023-05-07T03:12:57;14.60;99.90
22968;DHT22;11650;48.106;-1.696;2023-05-07T03:15:22;14.60;99.90
22968;DHT22;11650;48.106;-1.696;2023-05-07T03:17:48;14.60;99.90
22968;DHT22;11650;48.106;-1.696;2023-05-07T03:20:14;14.60;99.90
22968;DHT22;11650;48.106;-1.696;2023-05-07T03:22:40;14.50;99.90
22968;DHT22;11650;48.106;-1.696;2023-05-07T03:25:06;14.60;99.90
22968;DHT22;11650;48.106;-1.696;2023-05-07T03:27:32;14.50;99.90
22968;DHT22;11650;48.106;-1.696;2023-05-07T03:29:58;14.50;99.90
22968;DHT22;11650;48.106;-1.696;2023-05-07T03:32:24;14.50;99.90
22968;DHT22;11650;48.106;-1.696;2023-05-07T03:34:50;14.50;99.90
22968;DHT22;11650;48.106;-1.696;2023-05-07T03:37:15;14.50;99.90
22968;DHT22;11650;48.106;-1.696;2023-05-07T03:39:41;14.50;99.90
22968;DHT22;11650;48.106;-1.696;2023-05-07T03:42:07;14.50;99.90
22968;DHT22;11650;48.106;-1.696;2023-05-07T03:44:32;14.50;99.90
22968;DHT22;11650;48.106;-1.696;2023-05-07T03:46:58;14.50;99.90
22968;DHT22;11650;48.106;-1.696;2023-05-07T03:49:23;14.50;99.90
22968;DHT22;11650;48.106;-1.696;2023-05-07T03:51:49;14.50;99.90
22968;DHT22;11650;48.106;-1.696;2023-05-07T03:54:15;14.50;99.90
22968;DHT22;11650;48.106;-1.696;2023-05-07T03:56:40;14.50;99.90
22968;DHT22;11650;48.106;-1.696;2023-05-07T03:59:06;14.50;99.90
22968;DHT22;11650;48.106;-1.696;2023-05-07T04:01:32;14.50;99.90
22968;DHT22;11650;48.106;-1.696;2023-05-07T04:03:57;14.50;99.90
22968;DHT22;11650;48.106;-1.696;2023-05-07T04:06:23;14.50;99.90
22968;DHT22;11650;48.106;-1.696;2023-05-07T04:08:49;14.50;99.90
22968;DHT22;11650;48.106;-1.696;2023-05-07T04:11:15;14.50;99.90
22968;DHT22;11650;48.106;-1.696;2023-05-07T04:13:40;14.50;99.90
22968;DHT22;11650;48.106;-1.696;2023-05-07T04:16:06;14.50;99.90
22968;DHT22;11650;48.106;-1.696;2023-05-07T04:18:32;14.50;99.90
22968;DHT22;11650;48.106;-1.696;2023-05-07T04:20:57;14.50;99.90
22968;DHT22;11650;48.106;-1.696;2023-05-07T04:23:23;14.50;99.90
22968;DHT22;11650;48.106;-1.696;2023-05-07T04:25:49;14.50;99.90
22968;DHT22;11650;48.106;-1.696;2023-05-07T04:28:15;14.50;99.90
22968;DHT22;11650;48.106;-1.696;2023-05-07T04:30:41;14.50;99.90
22968;DHT22;11650;48.106;-1.696;2023-05-07T04:33:07;14.50;99.90
22968;DHT22;11650;48.106;-1.696;2023-05-07T04:35:33;14.50;99.90
22968;DHT22;11650;48.106;-1.696;2023-05-07T04:37:58;14.50;99.90
22968;DHT22;11650;48.106;-1.696;2023-05-07T04:40:24;14.50;99.90
22968;DHT22;11650;48.106;-1.696;2023-05-07T04:42:50;14.50;99.90
22968;DHT22;11650;48.106;-1.696;2023-05-07T04:45:16;14.50;99.90
22968;DHT22;11650;48.106;-1.696;2023-05-07T04:47:42;14.50;99.90
22968;DHT22;11650;48.106;-1.696;2023-05-07T04:50:08;14.50;99.90
22968;DHT22;11650;48.106;-1.696;2023-05-07T04:52:34;14.50;99.90
22968;DHT22;11650;48.106;-1.696;2023-05-07T04:55:00;14.60;99.90
22968;DHT22;11650;48.106;-1.696;2023-05-07T04:57:26;14.60;99.90
22968;DHT22;11650;48.106;-1.696;2023-05-07T04:59:53;14.50;99.90
22968;DHT22;11650;48.106;-1.696;2023-05-07T05:02:19;14.50;99.90
22968;DHT22;11650;48.106;-1.696;2023-05-07T05:04:45;14.50;99.90
22968;DHT22;11650;48.106;-1.696;2023-05-07T05:07:10;14.60;99.90
22968;DHT22;11650;48.106;-1.696;2023-05-07T05:09:36;14.60;99.90
22968;DHT22;11650;48.106;-1.696;2023-05-07T05:12:02;14.70;99.90
22968;DHT22;11650;48.106;-1.696;2023-05-07T05:14:27;14.70;99.90
22968;DHT22;11650;48.106;-1.696;2023-05-07T05:16:53;14.60;99.90
22968;DHT22;11650;48.106;-1.696;2023-05-07T05:19:19;14.70;99.90
22968;DHT22;11650;48.106;-1.696;2023-05-07T05:21:44;14.70;99.90
22968;DHT22;11650;48.106;-1.696;2023-05-07T05:24:10;14.70;99.90
22968;DHT22;11650;48.106;-1.696;2023-05-07T05:26:35;14.70;99.90
22968;DHT22;11650;48.106;-1.696;2023-05-07T05:29:01;14.70;99.90
22968;DHT22;11650;48.106;-1.696;2023-05-07T05:31:27;14.70;99.90
22968;DHT22;11650;48.106;-1.696;2023-05-07T05:33:52;14.70;99.90
22968;DHT22;11650;48.106;-1.696;2023-05-07T05:36:18;14.70;99.90
22968;DHT22;11650;48.106;-1.696;2023-05-07T05:38:44;14.70;99.90
22968;DHT22;11650;48.106;-1.696;2023-05-07T05:41:10;14.70;99.90
22968;DHT22;11650;48.106;-1.696;2023-05-07T05:43:36;14.70;99.90
22968;DHT22;11650;48.106;-1.696;2023-05-07T05:46:01;14.80;99.90
22968;DHT22;11650;48.106;-1.696;2023-05-07T05:48:29;14.80;99.90
22968;DHT22;11650;48.106;-1.696;2023-05-07T05:50:54;14.80;99.90
22968;DHT22;11650;48.106;-1.696;2023-05-07T05:53:20;14.80;99.90
22968;DHT22;11650;48.106;-1.696;2023-05-07T05:55:46;14.80;99.90
22968;DHT22;11650;48.106;-1.696;2023-05-07T05:58:11;14.80;99.90
22968;DHT22;11650;48.106;-1.696;2023-05-07T06:00:37;14.80;99.90
22968;DHT22;11650;48.106;-1.696;2023-05-07T06:03:03;14.90;99.90
22968;DHT22;11650;48.106;-1.696;2023-05-07T06:05:28;15.00;99.90
22968;DHT22;11650;48.106;-1.696;2023-05-07T06:07:54;15.00;99.90
22968;DHT22;11650;48.106;-1.696;2023-05-07T06:10:20;15.00;99.90
22968;DHT22;11650;48.106;-1.696;2023-05-07T06:12:45;15.00;99.90
22968;DHT22;11650;48.106;-1.696;2023-05-07T06:15:11;15.00;99.90
22968;DHT22;11650;48.106;-1.696;2023-05-07T06:17:37;15.10;99.90
22968;DHT22;11650;48.106;-1.696;2023-05-07T06:20:03;15.10;99.90
22968;DHT22;11650;48.106;-1.696;2023-05-07T06:22:28;15.20;99.90
22968;DHT22;11650;48.106;-1.696;2023-05-07T06:24:54;15.30;99.90
22968;DHT22;11650;48.106;-1.696;2023-05-07T06:27:20;15.30;99.90
22968;DHT22;11650;48.106;-1.696;2023-05-07T06:29:47;15.40;99.90
22968;DHT22;11650;48.106;-1.696;2023-05-07T06:32:13;15.50;99.90
22968;DHT22;11650;48.106;-1.696;2023-05-07T06:34:40;15.70;99.90
22968;DHT22;11650;48.106;-1.696;2023-05-07T06:37:06;15.70;99.90
22968;DHT22;11650;48.106;-1.696;2023-05-07T06:39:32;15.80;99.90
22968;DHT22;11650;48.106;-1.696;2023-05-07T06:41:59;15.80;99.90
22968;DHT22;11650;48.106;-1.696;2023-05-07T06:44:25;15.60;99.90
22968;DHT22;11650;48.106;-1.696;2023-05-07T06:46:51;15.70;99.90
22968;DHT22;11650;48.106;-1.696;2023-05-07T06:49:16;15.70;99.90
22968;DHT22;11650;48.106;-1.696;2023-05-07T06:51:42;15.80;99.90
22968;DHT22;11650;48.106;-1.696;2023-05-07T06:54:08;15.90;99.90
22968;DHT22;11650;48.106;-1.696;2023-05-07T06:56:34;15.90;99.90
22968;DHT22;11650;48.106;-1.696;2023-05-07T06:59:01;16.00;99.90
22968;DHT22;11650;48.106;-1.696;2023-05-07T07:01:27;16.00;99.90
22968;DHT22;11650;48.106;-1.696;2023-05-07T07:03:53;16.00;99.90
22968;DHT22;11650;48.106;-1.696;2023-05-07T07:06:18;16.00;99.90
22968;DHT22;11650;48.106;-1.696;2023-05-07T07:08:44;16.00;99.90
22968;DHT22;11650;48.106;-1.696;2023-05-07T07:11:10;15.80;99.90
22968;DHT22;11650;48.106;-1.696;2023-05-07T07:13:36;15.80;99.90
22968;DHT22;11650;48.106;-1.696;2023-05-07T07:16:02;15.90;99.90
22968;DHT22;11650;48.106;-1.696;2023-05-07T07:18:28;15.90;99.90
22968;DHT22;11650;48.106;-1.696;2023-05-07T07:20:54;15.70;99.90
22968;DHT22;11650;48.106;-1.696;2023-05-07T07:23:19;15.50;99.90
22968;DHT22;11650;48.106;-1.696;2023-05-07T07:25:45;15.30;99.90
22968;DHT22;11650;48.106;-1.696;2023-05-07T07:28:11;15.40;99.90
22968;DHT22;11650;48.106;-1.696;2023-05-07T07:30:37;15.40;99.90
22968;DHT22;11650;48.106;-1.696;2023-05-07T07:33:03;15.50;99.90
22968;DHT22;11650;48.106;-1.696;2023-05-07T07:35:29;15.60;99.90
22968;DHT22;11650;48.106;-1.696;2023-05-07T07:37:55;15.60;99.90
22968;DHT22;11650;48.106;-1.696;2023-05-07T07:40:21;15.70;99.90
22968;DHT22;11650;48.106;-1.696;2023-05-07T07:42:47;15.90;99.90
22968;DHT22;11650;48.106;-1.696;2023-05-07T07:45:13;16.00;99.90
22968;DHT22;11650;48.106;-1.696;2023-05-07T07:47:39;15.80;99.90
22968;DHT22;11650;48.106;-1.696;2023-05-07T07:50:06;15.80;99.90
22968;DHT22;11650;48.106;-1.696;2023-05-07T07:52:32;15.70;99.90
22968;DHT22;11650;48.106;-1.696;2023-05-07T07:54:58;15.60;99.90
22968;DHT22;11650;48.106;-1.696;2023-05-07T07:57:24;15.70;99.90
22968;DHT22;11650;48.106;-1.696;2023-05-07T07:59:50;15.70;99.90
22968;DHT22;11650;48.106;-1.696;2023-05-07T08:02:16;15.70;99.90
22968;DHT22;11650;48.106;-1.696;2023-05-07T08:04:42;15.70;99.90
22968;DHT22;11650;48.106;-1.696;2023-05-07T08:07:10;15.60;99.90
22968;DHT22;11650;48.106;-1.696;2023-05-07T08:09:40;15.50;99.90
22968;DHT22;11650;48.106;-1.696;2023-05-07T08:12:06;15.70;99.90
22968;DHT22;11650;48.106;-1.696;2023-05-07T08:14:33;15.70;99.90
22968;DHT22;11650;48.106;-1.696;2023-05-07T08:16:58;15.90;99.90
22968;DHT22;11650;48.106;-1.696;2023-05-07T08:19:24;15.80;99.90
22968;DHT22;11650;48.106;-1.696;2023-05-07T08:21:50;15.90;99.90
22968;DHT22;11650;48.106;-1.696;2023-05-07T08:24:16;16.10;99.90
22968;DHT22;11650;48.106;-1.696;2023-05-07T08:26:42;16.30;99.90
22968;DHT22;11650;48.106;-1.696;2023-05-07T08:29:08;16.40;99.90
22968;DHT22;11650;48.106;-1.696;2023-05-07T08:31:37;16.40;99.90
22968;DHT22;11650;48.106;-1.696;2023-05-07T08:34:04;16.40;99.90
22968;DHT22;11650;48.106;-1.696;2023-05-07T08:36:30;16.20;99.90
22968;DHT22;11650;48.106;-1.696;2023-05-07T08:38:56;16.10;99.90
22968;DHT22;11650;48.106;-1.696;2023-05-07T08:41:22;16.20;99.90
22968;DHT22;11650;48.106;-1.696;2023-05-07T08:43:49;16.60;99.90
22968;DHT22;11650;48.106;-1.696;2023-05-07T08:46:20;17.00;99.90
22968;DHT22;11650;48.106;-1.696;2023-05-07T08:48:49;17.10;99.90
22968;DHT22;11650;48.106;-1.696;2023-05-07T08:51:17;17.20;99.90
22968;DHT22;11650;48.106;-1.696;2023-05-07T08:53:44;17.80;99.90
22968;DHT22;11650;48.106;-1.696;2023-05-07T08:56:10;18.10;99.90
22968;DHT22;11650;48.106;-1.696;2023-05-07T08:58:36;18.30;99.90
22968;DHT22;11650;48.106;-1.696;2023-05-07T09:01:06;18.10;99.90
22968;DHT22;11650;48.106;-1.696;2023-05-07T09:03:32;17.90;99.90
22968;DHT22;11650;48.106;-1.696;2023-05-07T09:05:58;18.40;99.90
22968;DHT22;11650;48.106;-1.696;2023-05-07T09:08:27;18.70;99.90
22968;DHT22;11650;48.106;-1.696;2023-05-07T09:10:53;18.70;99.90
22968;DHT22;11650;48.106;-1.696;2023-05-07T09:13:19;18.50;99.90
22968;DHT22;11650;48.106;-1.696;2023-05-07T09:15:45;18.20;99.90
22968;DHT22;11650;48.106;-1.696;2023-05-07T09:18:10;17.90;99.90
22968;DHT22;11650;48.106;-1.696;2023-05-07T09:20:37;18.00;99.90
22968;DHT22;11650;48.106;-1.696;2023-05-07T09:23:03;18.10;99.90
22968;DHT22;11650;48.106;-1.696;2023-05-07T09:25:31;18.40;99.90
22968;DHT22;11650;48.106;-1.696;2023-05-07T09:27:57;18.60;99.90
22968;DHT22;11650;48.106;-1.696;2023-05-07T09:30:27;18.30;99.90
22968;DHT22;11650;48.106;-1.696;2023-05-07T09:32:53;18.20;99.90
22968;DHT22;11650;48.106;-1.696;2023-05-07T09:35:19;18.40;99.90
22968;DHT22;11650;48.106;-1.696;2023-05-07T09:37:47;18.60;99.90
22968;DHT22;11650;48.106;-1.696;2023-05-07T09:40:27;18.70;99.90
22968;DHT22;11650;48.106;-1.696;2023-05-07T09:42:53;18.50;99.90
22968;DHT22;11650;48.106;-1.696;2023-05-07T09:45:26;18.40;99.90
22968;DHT22;11650;48.106;-1.696;2023-05-07T09:47:55;18.50;99.90
22968;DHT22;11650;48.106;-1.696;2023-05-07T09:50:28;18.40;99.90
22968;DHT22;11650;48.106;-1.696;2023-05-07T09:52:57;18.40;99.90
22968;DHT22;11650;48.106;-1.696;2023-05-07T09:55:23;18.50;99.90
22968;DHT22;11650;48.106;-1.696;2023-05-07T09:57:52;18.50;99.90
22968;DHT22;11650;48.106;-1.696;2023-05-07T10:00:20;18.00;99.90
22968;DHT22;11650;48.106;-1.696;2023-05-07T10:02:48;18.00;99.90
22968;DHT22;11650;48.106;-1.696;2023-05-07T10:05:15;18.00;99.90
22968;DHT22;11650;48.106;-1.696;2023-05-07T10:07:41;18.10;99.90
22968;DHT22;11650;48.106;-1.696;2023-05-07T10:10:07;17.80;99.90
22968;DHT22;11650;48.106;-1.696;2023-05-07T10:12:33;17.90;99.90
22968;DHT22;11650;48.106;-1.696;2023-05-07T10:15:08;17.90;99.90
22968;DHT22;11650;48.106;-1.696;2023-05-07T10:17:38;18.50;99.90
22968;DHT22;11650;48.106;-1.696;2023-05-07T10:20:05;18.70;99.90
22968;DHT22;11650;48.106;-1.696;2023-05-07T10:22:45;18.70;99.90
22968;DHT22;11650;48.106;-1.696;2023-05-07T10:25:21;18.80;99.90
22968;DHT22;11650;48.106;-1.696;2023-05-07T10:27:49;18.70;99.90
22968;DHT22;11650;48.106;-1.696;2023-05-07T10:30:25;18.40;99.90
22968;DHT22;11650;48.106;-1.696;2023-05-07T10:32:55;18.90;99.90
22968;DHT22;11650;48.106;-1.696;2023-05-07T10:35:25;18.90;99.90
22968;DHT22;11650;48.106;-1.696;2023-05-07T10:37:51;19.20;99.90
22968;DHT22;11650;48.106;-1.696;2023-05-07T10:40:18;19.40;99.90
22968;DHT22;11650;48.106;-1.696;2023-05-07T10:42:58;19.30;99.90
22968;DHT22;11650;48.106;-1.696;2023-05-07T10:45:26;19.20;99.90
22968;DHT22;11650;48.106;-1.696;2023-05-07T10:48:13;18.80;99.90
22968;DHT22;11650;48.106;-1.696;2023-05-07T10:50:41;18.50;99.90
22968;DHT22;11650;48.106;-1.696;2023-05-07T10:55:46;18.50;99.90
22968;DHT22;11650;48.106;-1.696;2023-05-07T10:58:38;18.70;99.90
22968;DHT22;11650;48.106;-1.696;2023-05-07T11:01:04;18.70;99.90
22968;DHT22;11650;48.106;-1.696;2023-05-07T11:03:30;19.20;99.90
22968;DHT22;11650;48.106;-1.696;2023-05-07T11:06:12;19.30;99.90
22968;DHT22;11650;48.106;-1.696;2023-05-07T11:09:04;19.30;99.90
22968;DHT22;11650;48.106;-1.696;2023-05-07T11:11:59;19.60;99.90
22968;DHT22;11650;48.106;-1.696;2023-05-07T11:17:06;19.80;99.90
22968;DHT22;11650;48.106;-1.696;2023-05-07T11:19:52;19.60;99.90
22968;DHT22;11650;48.106;-1.696;2023-05-07T11:25:05;19.70;99.90
22968;DHT22;11650;48.106;-1.696;2023-05-07T11:27:32;19.80;99.90
22968;DHT22;11650;48.106;-1.696;2023-05-07T11:29:58;20.00;99.90
22968;DHT22;11650;48.106;-1.696;2023-05-07T11:32:24;20.10;99.90
22968;DHT22;11650;48.106;-1.696;2023-05-07T11:34:53;20.10;99.90
22968;DHT22;11650;48.106;-1.696;2023-05-07T11:37:19;20.50;99.90
22968;DHT22;11650;48.106;-1.696;2023-05-07T11:39:45;20.40;99.90
22968;DHT22;11650;48.106;-1.696;2023-05-07T11:42:29;19.90;99.90
22968;DHT22;11650;48.106;-1.696;2023-05-07T11:44:56;19.80;99.90
22968;DHT22;11650;48.106;-1.696;2023-05-07T11:47:22;19.50;99.90
22968;DHT22;11650;48.106;-1.696;2023-05-07T11:49:52;19.30;99.90
22968;DHT22;11650;48.106;-1.696;2023-05-07T11:52:20;19.50;99.90
22968;DHT22;11650;48.106;-1.696;2023-05-07T11:54:50;19.30;99.90
22968;DHT22;11650;48.106;-1.696;2023-05-07T11:57:15;19.00;99.90
22968;DHT22;11650;48.106;-1.696;2023-05-07T11:59:41;19.10;99.90
22968;DHT22;11650;48.106;-1.696;2023-05-07T12:02:09;19.30;99.90
22968;DHT22;11650;48.106;-1.696;2023-05-07T12:04:35;19.20;99.90
22968;DHT22;11650;48.106;-1.696;2023-05-07T12:07:01;19.10;99.90
22968;DHT22;11650;48.106;-1.696;2023-05-07T12:09:27;19.20;99.90
22968;DHT22;11650;48.106;-1.696;2023-05-07T12:11:52;19.50;99.90
22968;DHT22;11650;48.106;-1.696;2023-05-07T12:14:18;19.10;99.90
22968;DHT22;11650;48.106;-1.696;2023-05-07T12:16:44;18.70;99.90
22968;DHT22;11650;48.106;-1.696;2023-05-07T12:19:11;18.70;99.90
22968;DHT22;11650;48.106;-1.696;2023-05-07T12:21:40;18.30;99.90
22968;DHT22;11650;48.106;-1.696;2023-05-07T12:24:06;18.50;99.90
22968;DHT22;11650;48.106;-1.696;2023-05-07T12:26:37;18.90;99.90
22968;DHT22;11650;48.106;-1.696;2023-05-07T12:29:03;19.30;99.90
22968;DHT22;11650;48.106;-1.696;2023-05-07T12:31:29;19.40;99.90
22968;DHT22;11650;48.106;-1.696;2023-05-07T12:33:54;19.30;99.90
22968;DHT22;11650;48.106;-1.696;2023-05-07T12:36:20;19.20;99.90
22968;DHT22;11650;48.106;-1.696;2023-05-07T12:38:49;19.10;99.90
22968;DHT22;11650;48.106;-1.696;2023-05-07T12:41:15;19.20;99.90
22968;DHT22;11650;48.106;-1.696;2023-05-07T12:43:44;19.30;99.90
22968;DHT22;11650;48.106;-1.696;2023-05-07T12:46:11;19.20;99.90
22968;DHT22;11650;48.106;-1.696;2023-05-07T12:48:44;19.10;99.90
22968;DHT22;11650;48.106;-1.696;2023-05-07T12:51:11;19.40;99.90
22968;DHT22;11650;48.106;-1.696;2023-05-07T12:53:42;20.00;99.90
22968;DHT22;11650;48.106;-1.696;2023-05-07T12:56:08;20.70;99.90
22968;DHT22;11650;48.106;-1.696;2023-05-07T12:58:35;20.70;99.90
22968;DHT22;11650;48.106;-1.696;2023-05-07T13:01:06;20.90;99.90
22968;DHT22;11650;48.106;-1.696;2023-05-07T13:03:33;21.30;99.90
22968;DHT22;11650;48.106;-1.696;2023-05-07T13:08:38;22.90;99.90
22968;DHT22;11650;48.106;-1.696;2023-05-07T13:11:09;22.80;99.90
22968;DHT22;11650;48.106;-1.696;2023-05-07T13:13:37;22.60;99.90
22968;DHT22;11650;48.106;-1.696;2023-05-07T13:16:05;22.70;99.90
22968;DHT22;11650;48.106;-1.696;2023-05-07T13:18:32;22.00;99.90
22968;DHT22;11650;48.106;-1.696;2023-05-07T13:20:59;22.40;99.90
22968;DHT22;11650;48.106;-1.696;2023-05-07T13:23:26;22.60;99.90
22968;DHT22;11650;48.106;-1.696;2023-05-07T13:28:21;23.30;99.90
22968;DHT22;11650;48.106;-1.696;2023-05-07T13:30:47;23.00;99.90
22968;DHT22;11650;48.106;-1.696;2023-05-07T13:33:14;24.70;99.90
22968;DHT22;11650;48.106;-1.696;2023-05-07T13:35:40;23.00;99.90
22968;DHT22;11650;48.106;-1.696;2023-05-07T13:38:06;22.60;99.90
22968;DHT22;11650;48.106;-1.696;2023-05-07T13:40:32;22.00;99.90
22968;DHT22;11650;48.106;-1.696;2023-05-07T13:42:58;22.70;99.90
22968;DHT22;11650;48.106;-1.696;2023-05-07T13:45:25;22.20;99.90
22968;DHT22;11650;48.106;-1.696;2023-05-07T13:47:51;23.40;99.90
22968;DHT22;11650;48.106;-1.696;2023-05-07T13:50:17;23.40;99.90
22968;DHT22;11650;48.106;-1.696;2023-05-07T13:52:44;24.50;99.90
22968;DHT22;11650;48.106;-1.696;2023-05-07T13:55:22;24.60;99.90
22968;DHT22;11650;48.106;-1.696;2023-05-07T13:57:55;22.90;99.90
22968;DHT22;11650;48.106;-1.696;2023-05-07T14:00:21;22.50;99.90
22968;DHT22;11650;48.106;-1.696;2023-05-07T14:02:47;23.20;99.90
22968;DHT22;11650;48.106;-1.696;2023-05-07T14:05:12;22.80;99.90
22968;DHT22;11650;48.106;-1.696;2023-05-07T14:10:05;22.60;99.90
22968;DHT22;11650;48.106;-1.696;2023-05-07T14:12:32;22.20;99.90
22968;DHT22;11650;48.106;-1.696;2023-05-07T14:14:58;21.80;99.90
22968;DHT22;11650;48.106;-1.696;2023-05-07T14:19:51;22.20;99.90
22968;DHT22;11650;48.106;-1.696;2023-05-07T14:22:20;22.30;99.90
22968;DHT22;11650;48.106;-1.696;2023-05-07T14:24:46;21.80;99.90
22968;DHT22;11650;48.106;-1.696;2023-05-07T14:27:11;21.60;99.90
22968;DHT22;11650;48.106;-1.696;2023-05-07T14:29:37;21.60;99.90
22968;DHT22;11650;48.106;-1.696;2023-05-07T14:32:03;21.40;99.90
22968;DHT22;11650;48.106;-1.696;2023-05-07T14:34:29;21.60;99.90
22968;DHT22;11650;48.106;-1.696;2023-05-07T14:36:55;21.80;99.90
22968;DHT22;11650;48.106;-1.696;2023-05-07T14:39:21;22.40;99.90
22968;DHT22;11650;48.106;-1.696;2023-05-07T14:41:47;22.90;99.90
22968;DHT22;11650;48.106;-1.696;2023-05-07T14:44:12;23.00;99.90
22968;DHT22;11650;48.106;-1.696;2023-05-07T14:46:38;22.60;99.90
22968;DHT22;11650;48.106;-1.696;2023-05-07T14:49:03;22.60;99.90
22968;DHT22;11650;48.106;-1.696;2023-05-07T14:51:29;22.80;99.90
22968;DHT22;11650;48.106;-1.696;2023-05-07T14:53:56;22.50;99.90
22968;DHT22;11650;48.106;-1.696;2023-05-07T14:56:22;23.40;99.90
22968;DHT22;11650;48.106;-1.696;2023-05-07T14:58:48;24.70;99.90
22968;DHT22;11650;48.106;-1.696;2023-05-07T15:01:14;27.00;99.90
22968;DHT22;11650;48.106;-1.696;2023-05-07T15:03:40;27.20;99.90
22968;DHT22;11650;48.106;-1.696;2023-05-07T15:06:06;25.50;99.90
22968;DHT22;11650;48.106;-1.696;2023-05-07T15:08:31;25.00;99.90
22968;DHT22;11650;48.106;-1.696;2023-05-07T15:10:57;25.40;99.90
22968;DHT22;11650;48.106;-1.696;2023-05-07T15:13:23;25.70;99.90
22968;DHT22;11650;48.106;-1.696;2023-05-07T15:15:48;24.80;99.90
22968;DHT22;11650;48.106;-1.696;2023-05-07T15:18:15;25.10;99.90
22968;DHT22;11650;48.106;-1.696;2023-05-07T15:20:41;27.00;99.90
22968;DHT22;11650;48.106;-1.696;2023-05-07T15:23:07;26.30;99.90
22968;DHT22;11650;48.106;-1.696;2023-05-07T15:25:37;25.30;99.90
22968;DHT22;11650;48.106;-1.696;2023-05-07T15:28:03;24.20;99.90
22968;DHT22;11650;48.106;-1.696;2023-05-07T15:30:29;23.40;99.90
22968;DHT22;11650;48.106;-1.696;2023-05-07T15:32:55;22.90;99.90